createdAt,value
2023-02-23T00:02:18.360Z,100779.53
2023-02-23T00:04:50.294Z,100779.81
2023-02-23T00:07:20.049Z,100783.50
2023-02-23T00:09:47.331Z,100779.00
2023-02-23T00:12:16.879Z,100786.09
2023-02-23T00:14:49.028Z,100775.72
2023-02-23T00:17:17.528Z,100777.81
2023-02-23T00:19:49.712Z,100780.16
2023-02-23T00:22:16.884Z,100779.84
2023-02-23T00:24:47.770Z,100782.03
2023-02-23T00:27:19.023Z,100791.31
2023-02-23T00:29:49.791Z,100785.19
2023-02-23T00:32:31.144Z,100778.47
2023-02-23T00:34:58.508Z,100781.16
2023-02-23T00:37:29.984Z,100788.44
2023-02-23T00:39:57.416Z,100790.06
2023-02-23T00:42:29.698Z,100786.91
2023-02-23T00:44:57.275Z,100783.22
2023-02-23T00:47:26.566Z,100787.66
2023-02-23T00:49:53.553Z,100782.56
2023-02-23T00:52:23.624Z,100774.03
2023-02-23T00:54:51.470Z,100778.72
2023-02-23T00:57:22.281Z,100785.75
2023-02-23T00:59:49.257Z,100783.38
2023-02-23T01:02:16.215Z,100788.63
2023-02-23T01:04:43.172Z,100784.28
2023-02-23T01:07:12.895Z,100783.91
2023-02-23T01:09:40.026Z,100786.28
2023-02-23T01:12:07.665Z,100785.47
2023-02-23T01:14:35.841Z,100785.91
2023-02-23T01:17:07.771Z,100785.63
2023-02-23T01:19:39.800Z,100781.16
2023-02-23T01:22:09.396Z,100775.25
2023-02-23T01:24:38.784Z,100776.97
2023-02-23T01:27:08.015Z,100778.63
2023-02-23T01:29:35.069Z,100787.13
2023-02-23T01:32:05.053Z,100774.28
2023-02-23T01:34:32.920Z,100781.53
2023-02-23T01:36:59.922Z,100775.84
2023-02-23T01:39:27.098Z,100778.41
2023-02-23T01:41:55.555Z,100776.78
2023-02-23T01:44:22.401Z,100770.03
2023-02-23T01:46:50.289Z,100779.56
2023-02-23T01:49:25.961Z,100772.94
2023-02-23T01:52:03.745Z,100769.91
2023-02-23T01:54:50.400Z,100772.69
2023-02-23T01:57:24.719Z,100763.16
2023-02-23T01:59:54.844Z,100769.63
2023-02-23T02:02:33.539Z,100765.69
2023-02-23T02:05:06.450Z,100766.13
2023-02-23T02:07:40.065Z,100773.59
2023-02-23T02:10:11.536Z,100766.59
2023-02-23T02:12:45.992Z,100765.31
2023-02-23T02:15:18.808Z,100762.63
2023-02-23T02:18:18.749Z,100764.59
2023-02-23T02:21:11.665Z,100762.94
2023-02-23T02:24:08.843Z,100761.88
2023-02-23T02:26:47.810Z,100758.69
2023-02-23T02:29:39.754Z,100755.09
2023-02-23T02:32:24.764Z,100756.84
2023-02-23T02:35:46.695Z,100761.41
2023-02-23T02:38:50.690Z,100754.41
2023-02-23T02:41:42.356Z,100748.13
2023-02-23T02:44:31.028Z,100758.38
2023-02-23T02:47:09.574Z,100753.53
2023-02-23T02:50:06.942Z,100754.81
2023-02-23T02:52:52.657Z,100755.75
2023-02-23T02:55:26.464Z,100757.91
2023-02-23T02:57:58.122Z,100752.03
2023-02-23T03:00:53.943Z,100754.03
2023-02-23T03:04:02.821Z,100748.75
2023-02-23T03:06:51.387Z,100749.13
2023-02-23T03:10:18.160Z,100752.03
2023-02-23T03:13:37.712Z,100750.44
2023-02-23T03:16:55.438Z,100749.91
2023-02-23T03:20:24.263Z,100740.69
2023-02-23T03:24:09.907Z,100748.47
2023-02-23T03:27:17.333Z,100752.97
2023-02-23T03:30:12.247Z,100756.06
2023-02-23T03:33:11.575Z,100757.69
2023-02-23T03:36:29.117Z,100750.22
2023-02-23T03:39:31.638Z,100749.97
2023-02-23T03:42:21.378Z,100749.97
2023-02-23T03:45:08.970Z,100754.44
2023-02-23T03:48:00.635Z,100752.38
2023-02-23T03:51:05.823Z,100759.13
2023-02-23T03:54:04.937Z,100755.44
2023-02-23T03:56:56.040Z,100759.72
2023-02-23T03:59:49.145Z,100755.13
2023-02-23T04:02:38.254Z,100763.25
2023-02-23T04:05:30.525Z,100766.63
2023-02-23T04:08:19.948Z,100769.41
2023-02-23T04:11:15.067Z,100750.91
2023-02-23T04:13:44.957Z,100760.47
2023-02-23T04:16:12.422Z,100756.44
2023-02-23T04:18:45.051Z,100755.38
2023-02-23T04:21:14.990Z,100757.84
2023-02-23T04:23:43.463Z,100754.56
2023-02-23T04:26:10.472Z,100762.56
2023-02-23T04:28:39.934Z,100761.94
2023-02-23T04:31:07.090Z,100760.16
2023-02-23T04:33:36.432Z,100759.09
2023-02-23T04:36:03.590Z,100761.88
2023-02-23T04:38:30.630Z,100753.59
2023-02-23T04:40:57.652Z,100750.38
2023-02-23T04:43:24.616Z,100755.03
2023-02-23T04:45:54.184Z,100759.44
2023-02-23T04:48:26.847Z,100745.16
2023-02-23T04:50:54.980Z,100756.38
2023-02-23T04:53:25.293Z,100748.59
2023-02-23T04:55:52.527Z,100744.34
2023-02-23T04:58:21.849Z,100751.44
2023-02-23T05:00:49.757Z,100757.53
2023-02-23T05:03:17.650Z,100750.50
2023-02-23T05:05:45.292Z,100746.97
2023-02-23T05:08:12.505Z,100749.41
2023-02-23T05:10:41.620Z,100754.22
2023-02-23T05:13:11.532Z,100751.34
2023-02-23T05:15:41.990Z,100750.50
2023-02-23T05:18:09.386Z,100748.50
2023-02-23T05:20:36.784Z,100748.97
2023-02-23T05:23:03.914Z,100751.53
2023-02-23T05:25:31.028Z,100752.59
2023-02-23T05:27:58.092Z,100749.81
2023-02-23T05:30:25.133Z,100754.38
2023-02-23T05:32:52.189Z,100751.75
2023-02-23T05:35:21.367Z,100765.66
2023-02-23T05:37:50.572Z,100760.00
2023-02-23T05:40:20.794Z,100763.41
2023-02-23T05:42:50.827Z,100756.28
2023-02-23T05:45:18.004Z,100756.22
2023-02-23T05:47:45.066Z,100750.22
2023-02-23T05:50:14.549Z,100749.97
2023-02-23T05:52:44.368Z,100748.13
2023-02-23T05:55:15.181Z,100740.22
2023-02-23T05:57:42.872Z,100746.41
2023-02-23T06:00:13.420Z,100752.13
2023-02-23T06:02:41.696Z,100751.81
2023-02-23T06:05:11.371Z,100753.13
2023-02-23T06:07:38.712Z,100759.06
2023-02-23T06:10:06.622Z,100754.94
2023-02-23T06:12:33.654Z,100762.59
2023-02-23T06:15:03.443Z,100771.03
2023-02-23T06:17:33.003Z,100772.16
2023-02-23T06:20:03.475Z,100778.69
2023-02-23T06:22:31.044Z,100787.41
2023-02-23T06:25:04.994Z,100788.34
2023-02-23T06:27:34.344Z,100784.03
2023-02-23T06:30:03.324Z,100788.88
2023-02-23T06:32:30.354Z,100792.44
2023-02-23T06:34:57.285Z,100798.59
2023-02-23T06:37:27.067Z,100797.75
2023-02-23T06:39:56.487Z,100808.09
2023-02-23T06:42:24.275Z,100804.31
2023-02-23T06:44:53.696Z,100815.50
2023-02-23T06:47:20.681Z,100816.06
2023-02-23T06:49:47.832Z,100810.34
2023-02-23T06:52:17.445Z,100802.09
2023-02-23T06:54:45.336Z,100806.88
2023-02-23T06:57:17.049Z,100809.03
2023-02-23T06:59:43.913Z,100805.16
2023-02-23T07:02:14.454Z,100809.09
2023-02-23T07:04:41.342Z,100806.00
2023-02-23T07:07:08.294Z,100802.06
2023-02-23T07:09:35.334Z,100808.03
2023-02-23T07:12:07.167Z,100806.31
2023-02-23T07:14:37.666Z,100809.72
2023-02-23T07:17:05.423Z,100815.97
2023-02-23T07:19:35.284Z,100819.28
2023-02-23T07:22:03.535Z,100819.13
2023-02-23T07:24:30.771Z,100822.50
2023-02-23T07:26:57.937Z,100821.41
2023-02-23T07:29:28.365Z,100825.28
2023-02-23T07:32:00.374Z,100827.66
2023-02-23T07:34:27.479Z,100835.81
2023-02-23T07:36:58.990Z,100830.72
2023-02-23T07:39:25.937Z,100841.41
2023-02-23T07:41:57.491Z,100851.84
2023-02-23T07:44:28.951Z,100841.94
2023-02-23T07:46:56.450Z,100847.16
2023-02-23T07:49:23.385Z,100851.94
2023-02-23T07:51:55.446Z,100850.50
2023-02-23T07:54:26.070Z,100857.44
2023-02-23T07:56:53.459Z,100851.84
2023-02-23T07:59:24.987Z,100845.75
2023-02-23T08:01:52.436Z,100859.16
2023-02-23T08:04:22.642Z,100857.25
2023-02-23T08:06:52.295Z,100857.69
2023-02-23T08:09:21.737Z,100858.53
2023-02-23T08:11:51.890Z,100865.22
2023-02-23T08:14:22.033Z,100859.34
2023-02-23T08:16:51.805Z,100858.84
2023-02-23T08:19:23.873Z,100859.28
2023-02-23T08:21:51.115Z,100862.44
2023-02-23T08:24:20.783Z,100858.59
2023-02-23T08:26:50.485Z,100853.19
2023-02-23T08:29:17.612Z,100846.47
2023-02-23T08:31:45.084Z,100856.47
2023-02-23T08:34:12.250Z,100861.31
2023-02-23T08:36:40.568Z,100860.91
2023-02-23T08:39:10.017Z,100859.91
2023-02-23T08:41:39.708Z,100866.00
2023-02-23T08:44:06.759Z,100869.31
2023-02-23T08:46:34.290Z,100871.53
2023-02-23T08:49:01.255Z,100870.34
2023-02-23T08:51:28.197Z,100875.47
2023-02-23T08:53:57.542Z,100872.78
2023-02-23T08:56:27.133Z,100874.88
2023-02-23T08:58:54.281Z,100876.75
2023-02-23T09:01:24.616Z,100875.34
2023-02-23T09:03:51.533Z,100870.13
2023-02-23T09:06:22.278Z,100884.41
2023-02-23T09:08:49.733Z,100878.78
2023-02-23T09:11:17.043Z,100874.19
2023-02-23T09:13:44.678Z,100882.25
2023-02-23T09:16:11.799Z,100878.84
2023-02-23T09:18:44.248Z,100880.38
2023-02-23T09:21:19.145Z,100874.47
2023-02-23T09:23:48.237Z,100885.31
2023-02-23T09:26:18.896Z,100885.69
2023-02-23T09:28:46.504Z,100887.03
2023-02-23T09:31:18.300Z,100884.19
2023-02-23T09:33:45.556Z,100884.22
2023-02-23T09:36:20.612Z,100878.41
2023-02-23T09:38:55.122Z,100875.53
2023-02-23T09:41:51.267Z,100880.41
2023-02-23T09:44:48.193Z,100888.06
2023-02-23T09:47:32.845Z,100886.19
2023-02-23T09:50:09.469Z,100888.59
2023-02-23T09:52:47.672Z,100889.63
2023-02-23T09:55:15.166Z,100894.03
2023-02-23T09:57:49.959Z,100893.03
2023-02-23T10:00:27.737Z,100893.19
2023-02-23T10:03:25.033Z,100894.03
2023-02-23T10:06:03.232Z,100892.34
2023-02-23T10:09:14.489Z,100899.13
2023-02-23T10:12:08.355Z,100892.34
2023-02-23T10:14:56.213Z,100894.88
2023-02-23T10:17:31.849Z,100896.75
2023-02-23T10:20:29.426Z,100897.78
2023-02-23T10:23:04.052Z,100904.22
2023-02-23T10:25:36.075Z,100903.53
2023-02-23T10:28:05.497Z,100907.63
2023-02-23T10:30:34.714Z,100905.56
2023-02-23T10:33:47.474Z,100905.91
2023-02-23T10:36:19.681Z,100902.19
2023-02-23T10:38:47.346Z,100902.34
2023-02-23T10:41:15.035Z,100909.66
2023-02-23T10:43:42.326Z,100909.13
2023-02-23T10:46:24.373Z,100901.69
2023-02-23T10:48:57.077Z,100897.94
2023-02-23T10:51:32.710Z,100888.78
2023-02-23T10:54:08.064Z,100895.03
2023-02-23T10:56:50.154Z,100898.44
2023-02-23T10:59:21.621Z,100891.28
2023-02-23T11:02:01.358Z,100903.19
2023-02-23T11:04:35.074Z,100904.53
2023-02-23T11:07:17.865Z,100901.84
2023-02-23T11:09:48.485Z,100902.00
2023-02-23T11:12:23.333Z,100899.28
2023-02-23T11:14:53.199Z,100900.81
2023-02-23T11:17:28.699Z,100888.09
2023-02-23T11:20:25.528Z,100899.59
2023-02-23T11:22:52.565Z,100893.44
2023-02-23T11:25:31.123Z,100892.75
2023-02-23T11:27:58.890Z,100898.69
2023-02-23T11:30:42.940Z,100894.25
2023-02-23T11:33:21.676Z,100893.88
2023-02-23T11:35:48.582Z,100891.69
2023-02-23T11:38:30.601Z,100900.06
2023-02-23T11:41:07.295Z,100892.16
2023-02-23T11:43:36.070Z,100890.31
2023-02-23T11:46:06.105Z,100892.34
2023-02-23T11:48:44.051Z,100895.06
2023-02-23T11:51:11.122Z,100892.00
2023-02-23T11:53:46.703Z,100884.03
2023-02-23T11:56:22.668Z,100887.09
2023-02-23T11:58:55.858Z,100878.25
2023-02-23T12:01:49.513Z,100883.00
2023-02-23T12:04:37.069Z,100884.03
2023-02-23T12:07:41.638Z,100888.09
2023-02-23T12:10:33.004Z,100884.72
2023-02-23T12:13:17.626Z,100884.19
2023-02-23T12:15:54.769Z,100879.31
2023-02-23T12:18:43.325Z,100871.31
2023-02-23T12:21:41.192Z,100875.03
2023-02-23T12:24:26.809Z,100866.91
2023-02-23T12:27:35.202Z,100866.03
2023-02-23T12:30:41.145Z,100862.31
2023-02-23T12:33:30.043Z,100866.56
2023-02-23T12:36:04.141Z,100874.72
2023-02-23T12:38:56.900Z,100871.13
2023-02-23T12:41:37.846Z,100867.91
2023-02-23T12:44:17.389Z,100867.91
2023-02-23T12:46:54.421Z,100870.44
2023-02-23T12:49:45.355Z,100877.22
2023-02-23T12:52:29.436Z,100874.69
2023-02-23T12:55:01.211Z,100875.34
2023-02-23T12:57:54.896Z,100878.06
2023-02-23T13:00:58.216Z,100877.06
2023-02-23T13:03:46.708Z,100874.50
2023-02-23T13:06:37.839Z,100871.53
2023-02-23T13:09:19.649Z,100877.34
2023-02-23T13:12:53.830Z,100876.34
2023-02-23T13:15:45.645Z,100875.50
2023-02-23T13:18:24.654Z,100875.09
2023-02-23T13:21:21.891Z,100872.56
2023-02-23T13:24:19.011Z,100874.59
2023-02-23T13:26:59.252Z,100870.94
2023-02-23T13:29:48.693Z,100865.97
2023-02-23T13:32:32.065Z,100862.44
2023-02-23T13:35:01.841Z,100861.78
2023-02-23T13:37:43.257Z,100862.97
2023-02-23T13:40:43.187Z,100867.38
2023-02-23T13:43:34.865Z,100873.56
2023-02-23T13:46:26.424Z,100870.56
2023-02-23T13:49:02.374Z,100871.75
2023-02-23T13:51:52.151Z,100866.34
2023-02-23T13:54:25.132Z,100865.66
2023-02-23T13:56:59.824Z,100867.59
2023-02-23T13:59:43.955Z,100865.47
2023-02-23T14:02:46.736Z,100862.97
2023-02-23T14:05:15.624Z,100865.53
2023-02-23T14:07:46.254Z,100864.41
2023-02-23T14:10:24.861Z,100863.09
2023-02-23T14:13:48.797Z,100865.44
2023-02-23T14:16:22.656Z,100854.56
2023-02-23T14:19:07.831Z,100857.78
2023-02-23T14:21:52.278Z,100872.06
2023-02-23T14:24:25.096Z,100861.28
2023-02-23T14:27:40.427Z,100859.28
2023-02-23T14:30:11.018Z,100862.19
2023-02-23T14:32:46.133Z,100867.09
2023-02-23T14:35:34.656Z,100865.25
2023-02-23T14:38:11.752Z,100862.88
2023-02-23T14:40:46.988Z,100870.13
2023-02-23T14:43:49.398Z,100859.91
2023-02-23T14:46:26.495Z,100863.38
2023-02-23T14:49:21.412Z,100869.34
2023-02-23T14:51:58.557Z,100869.22
2023-02-23T14:54:31.139Z,100866.09
2023-02-23T14:57:04.645Z,100862.00
2023-02-23T14:59:42.605Z,100863.50
2023-02-23T15:02:18.849Z,100865.72
2023-02-23T15:04:48.367Z,100867.63
2023-02-23T15:07:32.184Z,100859.59
2023-02-23T15:10:03.873Z,100871.47
2023-02-23T15:12:39.424Z,100870.16
2023-02-23T15:15:23.146Z,100865.38
2023-02-23T15:18:01.071Z,100860.97
2023-02-23T15:23:04.444Z,100867.63
2023-02-23T15:25:41.486Z,100862.16
2023-02-23T15:28:25.626Z,100865.31
2023-02-23T15:31:00.919Z,100863.84
2023-02-23T15:33:31.184Z,100865.41
2023-02-23T15:36:23.291Z,100872.03
2023-02-23T15:38:57.266Z,100858.84
2023-02-23T15:41:36.839Z,100864.94
2023-02-23T15:44:20.148Z,100865.25
2023-02-23T15:46:54.777Z,100862.72
2023-02-23T15:49:25.174Z,100861.63
2023-02-23T15:52:03.681Z,100860.31
2023-02-23T15:55:06.408Z,100863.97
2023-02-23T15:58:01.012Z,100865.06
2023-02-23T16:00:44.448Z,100864.81
2023-02-23T16:03:33.403Z,100863.50
2023-02-23T16:06:08.277Z,100859.25
2023-02-23T16:08:36.847Z,100865.72
2023-02-23T16:11:19.199Z,100864.56
2023-02-23T16:13:47.087Z,100870.00
2023-02-23T16:16:20.577Z,100853.53
2023-02-23T16:18:54.402Z,100853.69
2023-02-23T16:21:25.597Z,100855.59
2023-02-23T16:24:05.636Z,100856.97
2023-02-23T16:26:41.745Z,100856.94
2023-02-23T16:29:18.581Z,100850.69
2023-02-23T16:31:59.910Z,100855.16
2023-02-23T16:34:37.281Z,100855.22
2023-02-23T16:37:20.125Z,100845.41
2023-02-23T16:39:48.111Z,100853.91
2023-02-23T16:42:30.721Z,100854.25
2023-02-23T16:45:01.148Z,100853.38
2023-02-23T16:47:41.442Z,100858.31
2023-02-23T16:50:24.525Z,100861.72
2023-02-23T16:52:53.564Z,100855.00
2023-02-23T16:55:27.246Z,100861.16
2023-02-23T16:58:05.619Z,100863.03
2023-02-23T17:00:34.250Z,100862.00
2023-02-23T17:03:06.309Z,100860.31
2023-02-23T17:05:35.892Z,100872.16
2023-02-23T17:08:02.993Z,100872.00
2023-02-23T17:10:35.979Z,100869.81
2023-02-23T17:13:11.121Z,100877.97
2023-02-23T17:15:53.637Z,100874.25
2023-02-23T17:21:02.694Z,100882.72
2023-02-23T17:23:50.755Z,100879.69
2023-02-23T17:26:23.653Z,100879.31
2023-02-23T17:28:51.351Z,100883.25
2023-02-23T17:31:20.433Z,100883.91
2023-02-23T17:33:50.252Z,100889.03
2023-02-23T17:36:20.832Z,100880.00
2023-02-23T17:38:50.929Z,100886.59
2023-02-23T17:41:20.405Z,100885.56
2023-02-23T17:43:49.839Z,100883.22
2023-02-23T17:46:19.714Z,100887.19
2023-02-23T17:48:49.535Z,100894.72
2023-02-23T17:51:24.061Z,100891.84
2023-02-23T17:53:51.075Z,100905.78
2023-02-23T17:56:19.940Z,100906.47
2023-02-23T17:58:50.637Z,100898.38
2023-02-23T18:01:20.474Z,100908.50
2023-02-23T18:03:48.088Z,100908.97
2023-02-23T18:06:17.547Z,100914.38
2023-02-23T18:08:47.058Z,100910.19
2023-02-23T18:11:18.490Z,100920.78
2023-02-23T18:13:51.160Z,100913.38
2023-02-23T18:16:19.253Z,100906.66
2023-02-23T18:18:48.880Z,100913.59
2023-02-23T18:21:20.041Z,100902.66
2023-02-23T18:23:50.858Z,100906.03
2023-02-23T18:26:23.916Z,100903.03
2023-02-23T18:28:54.216Z,100901.41
2023-02-23T18:31:25.296Z,100904.56
2023-02-23T18:33:56.425Z,100904.75
2023-02-23T18:36:30.991Z,100899.78
2023-02-23T18:39:04.097Z,100908.38
2023-02-23T18:41:31.335Z,100904.44
2023-02-23T18:44:02.765Z,100917.34
2023-02-23T18:46:32.526Z,100902.28
2023-02-23T18:48:59.807Z,100906.69
2023-02-23T18:51:26.998Z,100896.00
2023-02-23T18:53:54.840Z,100896.53
2023-02-23T18:56:28.110Z,100901.13
2023-02-23T18:59:01.471Z,100911.53
2023-02-23T19:01:42.541Z,100907.88
2023-02-23T19:04:10.613Z,100901.38
2023-02-23T19:06:40.221Z,100915.00
2023-02-23T19:09:12.677Z,100910.03
2023-02-23T19:11:41.671Z,100909.34
2023-02-23T19:14:18.457Z,100913.59
2023-02-23T19:16:52.093Z,100905.50
2023-02-23T19:19:19.138Z,100903.81
2023-02-23T19:21:48.874Z,100899.59
2023-02-23T19:24:16.211Z,100908.31
2023-02-23T19:26:43.185Z,100904.91
2023-02-23T19:29:12.324Z,100906.75
2023-02-23T19:31:42.316Z,100900.75
2023-02-23T19:34:11.275Z,100887.50
2023-02-23T19:36:38.126Z,100901.41
2023-02-23T19:39:16.007Z,100892.97
2023-02-23T19:41:45.358Z,100890.16
2023-02-23T19:44:12.550Z,100897.28
2023-02-23T19:46:44.415Z,100895.25
2023-02-23T19:49:15.627Z,100890.47
2023-02-23T19:51:44.319Z,100897.00
2023-02-23T19:54:12.177Z,100902.94
2023-02-23T19:56:39.330Z,100900.97
2023-02-23T19:59:06.734Z,100899.25
2023-02-23T20:01:33.809Z,100898.69
2023-02-23T20:04:06.634Z,100910.34
2023-02-23T20:06:40.953Z,100909.78
2023-02-23T20:09:10.439Z,100918.44
2023-02-23T20:11:37.463Z,100910.75
2023-02-23T20:14:08.229Z,100914.19
2023-02-23T20:16:35.992Z,100907.97
2023-02-23T20:19:05.591Z,100913.81
2023-02-23T20:21:32.717Z,100917.81
2023-02-23T20:24:03.802Z,100914.97
2023-02-23T20:26:35.378Z,100924.50
2023-02-23T20:29:11.255Z,100921.50
2023-02-23T20:31:41.955Z,100927.88
2023-02-23T20:34:11.165Z,100929.16
2023-02-23T20:36:40.114Z,100935.72
2023-02-23T20:39:09.274Z,100940.13
2023-02-23T20:41:36.286Z,100939.53
2023-02-23T20:44:03.760Z,100937.81
2023-02-23T20:46:30.992Z,100934.25
2023-02-23T20:48:59.472Z,100935.66
2023-02-23T20:51:27.390Z,100936.66
2023-02-23T20:53:57.649Z,100937.00
2023-02-23T20:56:32.759Z,100931.31
2023-02-23T20:58:59.965Z,100942.81
2023-02-23T21:01:29.480Z,100935.72
2023-02-23T21:03:56.995Z,100935.72
2023-02-23T21:06:26.015Z,100939.13
2023-02-23T21:09:02.746Z,100933.75
2023-02-23T21:11:32.187Z,100930.16
2023-02-23T21:14:02.195Z,100934.97
2023-02-23T21:16:32.244Z,100930.06
2023-02-23T21:19:05.234Z,100929.59
2023-02-23T21:21:47.109Z,100936.25
2023-02-23T21:24:19.028Z,100931.88
2023-02-23T21:26:48.378Z,100927.47
2023-02-23T21:29:18.533Z,100923.91
2023-02-23T21:31:47.132Z,100922.63
2023-02-23T21:34:18.861Z,100924.19
2023-02-23T21:36:51.372Z,100919.66
2023-02-23T21:39:21.538Z,100915.28
2023-02-23T21:41:53.184Z,100906.75
2023-02-23T21:44:20.235Z,100905.94
2023-02-23T21:46:47.830Z,100908.19
2023-02-23T21:49:18.958Z,100911.16
2023-02-23T21:51:48.549Z,100909.47
2023-02-23T21:54:18.526Z,100910.47
2023-02-23T21:56:45.485Z,100910.88
2023-02-23T21:59:12.415Z,100912.44
2023-02-23T22:01:41.859Z,100901.78
2023-02-23T22:04:14.793Z,100897.38
2023-02-23T22:06:44.061Z,100901.94
2023-02-23T22:09:12.671Z,100899.94
2023-02-23T22:11:45.528Z,100897.09
2023-02-23T22:14:22.163Z,100897.94
2023-02-23T22:16:52.335Z,100896.81
2023-02-23T22:19:24.771Z,100888.59
2023-02-23T22:21:51.935Z,100889.72
2023-02-23T22:24:19.429Z,100893.41
2023-02-23T22:26:54.210Z,100889.44
2023-02-23T22:29:24.304Z,100883.19
2023-02-23T22:31:54.563Z,100881.75
2023-02-23T22:34:22.248Z,100884.19
2023-02-23T22:36:51.356Z,100881.50
2023-02-23T22:39:18.677Z,100875.91
2023-02-23T22:41:47.796Z,100878.63
2023-02-23T22:44:20.330Z,100870.44
2023-02-23T22:46:50.487Z,100869.31
2023-02-23T22:49:19.861Z,100869.59
2023-02-23T22:51:47.091Z,100863.03
2023-02-23T22:54:14.296Z,100858.53
2023-02-23T22:56:44.072Z,100851.72
2023-02-23T22:59:17.520Z,100844.91
2023-02-23T23:01:50.316Z,100855.53
2023-02-23T23:04:19.432Z,100848.56
2023-02-23T23:06:46.585Z,100848.56
2023-02-23T23:09:14.879Z,100848.88
2023-02-23T23:11:45.249Z,100847.59
2023-02-23T23:14:18.246Z,100841.22
2023-02-23T23:16:53.293Z,100844.47
2023-02-23T23:19:25.292Z,100832.44
2023-02-23T23:21:55.270Z,100824.34
2023-02-23T23:24:24.865Z,100827.88
2023-02-23T23:27:00.460Z,100826.63
2023-02-23T23:29:32.545Z,100828.75
2023-02-23T23:32:02.425Z,100828.47
2023-02-23T23:34:33.432Z,100821.09
2023-02-23T23:37:04.283Z,100814.00
2023-02-23T23:39:31.224Z,100808.03
2023-02-23T23:42:01.955Z,100800.94
2023-02-23T23:44:29.344Z,100795.53
2023-02-23T23:46:57.029Z,100799.19
2023-02-23T23:49:27.036Z,100800.91
2023-02-23T23:51:58.544Z,100797.09
2023-02-23T23:54:38.698Z,100790.13
2023-02-23T23:57:08.065Z,100795.34
2023-02-23T23:59:35.872Z,100786.72
